Wilson Gdynia — 8PSA — position and weather

sailwx.info

Track history (hours):
 
Tides and Currents Weather Stations Pressure Air Temp Water Temp Dewpoint Dewpoint Depression Visibility Wind Speed Wind Dir Waves Ship Positions

Wilson Gdynia

Last reported at 2014-Sep-16 06:31 UTC. Time now 2014-Sep-20 10:05 UTC.
Position N 58°18' W 005°34'.

Length 88 m; draft 5.6 m.

Type: Cargo ship. MMSI: 314192000.

Date/timePositionNaut miles runAvg speedWind from/ knotsBaromVisibWave heightAir tempDewpointWater temp
2014-Sep-16 06:31N 58°18' W 005°34'9 9.1
2014-Sep-16 05:33N 58°11' W 005°42'142 7.8
2014-Sep-15 11:18N 55°55' W 006°57'6 8.1
2014-Sep-15 10:33N 55°50' W 006°50'8 8.3
2014-Sep-15 09:33N 55°44' W 006°41'9 8.9
2014-Sep-15 08:33N 55°37' W 006°31'1010.2
2014-Sep-15 07:33N 55°29' W 006°20'1010.4
2014-Sep-15 06:33N 55°24' W 006°03'1212.5
2014-Sep-15 05:33N 55°14' W 005°51'20 9.9
2014-Sep-15 03:30N 54°56' W 005°34'8 8.6
2014-Sep-15 02:33N 54°49' W 005°27'8 7.8
2014-Sep-15 01:33N 54°42' W 005°21'8 7.6
2014-Sep-15 00:33N 54°36' W 005°15'7 7.4
2014-Sep-14 23:33N 54°28' W 005°13'8 7.6
2014-Sep-14 22:33N 54°21' W 005°13'8 8.3
2014-Sep-14 21:32N 54°12' W 005°14'303 8.4
2014-Sep-13 09:33N 49°16' W 006°58'24 8.0
2014-Sep-13 06:33N 48°53' W 007°09'10 9.8
2014-Sep-13 05:33N 48°44' W 007°14'  
2014-Sep-08 12:33N 35°55' W 005°19'1 1.1
2014-Sep-08 11:33N 35°54' W 005°18'0 0.0
2014-Sep-08 10:33N 35°54' W 005°18'0 0.1
2014-Sep-08 09:33N 35°54' W 005°18'1 0.7
2014-Sep-08 08:33N 35°54' W 005°18'144 7.9
2014-Sep-07 14:23N 36°24' W 002°23'8 8.2
2014-Sep-07 13:24N 36°25' W 002°14'9 8.3
2014-Sep-07 12:17N 36°27' W 002°02'6 8.6
2014-Sep-07 11:33N 36°28' W 001°55'9 8.7
2014-Sep-07 10:33N 36°30' W 001°44'9 8.8
2014-Sep-07 09:33N 36°31' W 001°33'10 9.1
2014-Sep-07 08:24N 36°33' W 001°20'8 8.8
2014-Sep-07 07:33N 36°34' W 001°11'9 8.8
2014-Sep-07 06:33N 36°35' W 001°00'9 8.9
2014-Sep-07 05:33N 36°37' W 000°49'9 8.8
2014-Sep-07 04:33N 36°38' W 000°39'9 8.8
2014-Sep-07 03:33N 36°39' W 000°28'37 8.6
2014-Sep-06 23:13N 36°46' E 000°18'5 8.1
2014-Sep-06 22:33N 36°47' E 000°25'8 8.1
2014-Sep-06 21:33N 36°48' E 000°35'8 8.1
2014-Sep-06 20:33N 36°49' E 000°45'8 8.1
2014-Sep-06 19:33N 36°50' E 000°55'9 8.9
2014-Sep-06 18:33N 36°52' E 001°06'10 8.9
2014-Sep-06 17:28N 36°53' E 001°18'10 9.3
2014-Sep-06 16:21N 36°55' E 001°31'17 9.3
2014-Sep-06 14:33N 36°58' E 001°52'10 9.5
2014-Sep-06 13:32N 36°59' E 002°03'  
Track history (hours):
 
Tides and Currents Weather Stations Pressure Air Temp Water Temp Dewpoint Dewpoint Depression Visibility Wind Speed Wind Dir Waves Ship Positions

Wilson Gdynia

Last reported at 2014-Sep-16 06:31 UTC. Time now 2014-Sep-20 10:05 UTC.
Position N 58°18' W 005°34'.

Length 88 m; draft 5.6 m.

Type: Cargo ship. MMSI: 314192000.

Date/timePositionNaut miles runAvg speedWind from/ knotsBaromVisibWave heightAir tempDewpointWater temp
2014-Sep-16 06:31N 58°18' W 005°34'9 9.1
2014-Sep-16 05:33N 58°11' W 005°42'142 7.8
2014-Sep-15 11:18N 55°55' W 006°57'6 8.1
2014-Sep-15 10:33N 55°50' W 006°50'8 8.3
2014-Sep-15 09:33N 55°44' W 006°41'9 8.9
2014-Sep-15 08:33N 55°37' W 006°31'1010.2
2014-Sep-15 07:33N 55°29' W 006°20'1010.4
2014-Sep-15 06:33N 55°24' W 006°03'1212.5
2014-Sep-15 05:33N 55°14' W 005°51'20 9.9
2014-Sep-15 03:30N 54°56' W 005°34'8 8.6
2014-Sep-15 02:33N 54°49' W 005°27'8 7.8
2014-Sep-15 01:33N 54°42' W 005°21'8 7.6
2014-Sep-15 00:33N 54°36' W 005°15'7 7.4
2014-Sep-14 23:33N 54°28' W 005°13'8 7.6
2014-Sep-14 22:33N 54°21' W 005°13'8 8.3
2014-Sep-14 21:32N 54°12' W 005°14'303 8.4
2014-Sep-13 09:33N 49°16' W 006°58'24 8.0
2014-Sep-13 06:33N 48°53' W 007°09'10 9.8
2014-Sep-13 05:33N 48°44' W 007°14'  
2014-Sep-08 12:33N 35°55' W 005°19'1 1.1
2014-Sep-08 11:33N 35°54' W 005°18'0 0.0
2014-Sep-08 10:33N 35°54' W 005°18'0 0.1
2014-Sep-08 09:33N 35°54' W 005°18'1 0.7
2014-Sep-08 08:33N 35°54' W 005°18'144 7.9
2014-Sep-07 14:23N 36°24' W 002°23'8 8.2
2014-Sep-07 13:24N 36°25' W 002°14'9 8.3
2014-Sep-07 12:17N 36°27' W 002°02'6 8.6
2014-Sep-07 11:33N 36°28' W 001°55'9 8.7
2014-Sep-07 10:33N 36°30' W 001°44'9 8.8
2014-Sep-07 09:33N 36°31' W 001°33'10 9.1
2014-Sep-07 08:24N 36°33' W 001°20'8 8.8
2014-Sep-07 07:33N 36°34' W 001°11'9 8.8
2014-Sep-07 06:33N 36°35' W 001°00'9 8.9
2014-Sep-07 05:33N 36°37' W 000°49'9 8.8
2014-Sep-07 04:33N 36°38' W 000°39'9 8.8
2014-Sep-07 03:33N 36°39' W 000°28'37 8.6
2014-Sep-06 23:13N 36°46' E 000°18'5 8.1
2014-Sep-06 22:33N 36°47' E 000°25'8 8.1
2014-Sep-06 21:33N 36°48' E 000°35'8 8.1
2014-Sep-06 20:33N 36°49' E 000°45'8 8.1
2014-Sep-06 19:33N 36°50' E 000°55'9 8.9
2014-Sep-06 18:33N 36°52' E 001°06'10 8.9
2014-Sep-06 17:28N 36°53' E 001°18'10 9.3
2014-Sep-06 16:21N 36°55' E 001°31'17 9.3
2014-Sep-06 14:33N 36°58' E 001°52'10 9.5
2014-Sep-06 13:32N 36°59' E 002°03'  

Dump ship's entire track history